Time;durP1;ratioP1;P1;durP2;ratioP2;P2;SDS_P1;SDS_P2;PMS_P1;PMS_P2;Temp;Humidity;BMP_temperature;BMP_pressure;BME280_temperature;BME280_humidity;BME280_pressure;Samples;Min_cycle;Max_cycle;Signal;HPM_P1;HPM_P2
2022/12/04 00:00:09;;;;;;;58.10;27.70;;;;;;;1.44;100.00;100113.94;5041881;28;20028;-70
2022/12/04 00:02:34;;;;;;;52.55;26.42;;;;;;;1.41;100.00;100120.72;5071188;28;20103;-70
2022/12/04 00:05:01;;;;;;;56.47;26.75;;;;;;;1.44;100.00;100112.00;5058358;28;20056;-70
2022/12/04 00:07:26;;;;;;;51.05;25.58;;;;;;;1.46;100.00;100109.88;5093251;28;20393;-70
2022/12/04 00:09:52;;;;;;;50.85;25.20;;;;;;;1.50;100.00;100116.50;5061521;28;20089;-70
2022/12/04 00:12:17;;;;;;;49.60;25.15;;;;;;;1.50;100.00;100113.78;5096277;28;20032;-70
2022/12/04 00:14:43;;;;;;;48.95;25.00;;;;;;;1.51;100.00;100112.72;5078099;28;20036;-70
2022/12/04 00:17:08;;;;;;;51.97;25.52;;;;;;;1.48;100.00;100115.94;5061189;28;20081;-70
2022/12/04 00:19:34;;;;;;;49.88;24.67;;;;;;;1.46;100.00;100109.88;5059017;28;20032;-70
2022/12/04 00:21:59;;;;;;;48.13;24.48;;;;;;;1.48;100.00;100106.91;5061327;28;20479;-70
2022/12/04 00:24:25;;;;;;;51.58;25.75;;;;;;;1.46;100.00;100109.88;5053454;28;20078;-70
2022/12/04 00:26:51;;;;;;;49.75;25.77;;;;;;;1.46;100.00;100100.84;5056443;28;20542;-70
2022/12/04 00:29:17;;;;;;;47.53;24.45;;;;;;;1.50;100.00;100104.72;5052725;28;20067;-70
2022/12/04 00:31:42;;;;;;;44.10;23.45;;;;;;;1.52;100.00;100103.41;5093215;28;20025;-70
2022/12/04 00:34:08;;;;;;;45.97;23.73;;;;;;;1.52;100.00;100105.31;5061071;28;20071;-70
2022/12/04 00:36:33;;;;;;;45.47;24.13;;;;;;;1.53;100.00;100101.50;5061098;28;20028;-70
2022/12/04 00:38:59;;;;;;;44.55;22.55;;;;;;;1.51;100.00;100096.28;5061031;28;20118;-70
2022/12/04 00:41:26;;;;;;;45.20;23.75;;;;;;;1.51;100.00;100100.94;5077909;28;20035;-70
2022/12/04 00:43:51;;;;;;;44.50;22.45;;;;;;;1.49;100.00;100089.41;5060809;28;20675;-70
2022/12/04 00:46:17;;;;;;;44.92;23.73;;;;;;;1.49;100.00;100100.34;5049399;28;20103;-70
2022/12/04 00:48:43;;;;;;;43.80;24.15;;;;;;;1.51;100.00;100092.72;5029020;28;20028;-70
2022/12/04 00:51:12;;;;;;;44.75;22.83;;;;;;;1.47;100.00;100092.38;5072026;28;20063;-70
2022/12/04 00:53:38;;;;;;;44.60;22.15;;;;;;;1.48;100.00;100096.78;5057532;28;20024;-70
2022/12/04 00:56:08;;;;;;;46.63;24.48;;;;;;;1.45;100.00;100089.06;5055087;28;20031;-70
2022/12/04 00:58:33;;;;;;;40.78;22.25;;;;;;;1.46;100.00;100085.25;5044232;28;20055;-70
2022/12/04 01:01:10;;;;;;;41.92;22.35;;;;;;;1.44;100.00;100081.91;5060817;28;20029;-70
2022/12/04 01:03:35;;;;;;;43.45;22.55;;;;;;;1.40;100.00;100074.47;5061574;28;20039;-70
2022/12/04 01:06:01;;;;;;;42.08;22.50;;;;;;;1.40;100.00;100069.81;5060803;28;20032;-70
2022/12/04 01:08:27;;;;;;;41.15;21.77;;;;;;;1.38;100.00;100077.41;5077723;28;20035;-71
2022/12/04 01:10:52;;;;;;;44.80;22.80;;;;;;;1.36;100.00;100060.41;5060799;28;21306;-70
2022/12/04 01:13:18;;;;;;;44.08;21.88;;;;;;;1.36;100.00;100060.41;5059490;28;20028;-70
2022/12/04 01:15:43;;;;;;;44.33;22.27;;;;;;;1.38;100.00;100057.44;5043955;28;20035;-70
2022/12/04 01:18:10;;;;;;;38.10;20.25;;;;;;;1.40;100.00;100058.88;5062189;28;20081;-70
2022/12/04 01:20:35;;;;;;;36.70;19.75;;;;;;;1.40;100.00;100061.59;5060367;28;20032;-70
2022/12/04 01:23:01;;;;;;;39.78;21.27;;;;;;;1.39;100.00;100054.44;5060728;28;20034;-70
2022/12/04 01:25:26;;;;;;;34.85;19.65;;;;;;;1.40;100.00;100050.66;5031402;28;20021;-70
2022/12/04 01:27:52;;;;;;;41.05;21.25;;;;;;;1.38;100.00;100050.06;5043677;28;20133;-70
2022/12/04 01:30:17;;;;;;;37.78;20.27;;;;;;;1.40;100.00;100050.66;5030681;28;20090;-70
2022/12/04 01:32:43;;;;;;;39.53;21.52;;;;;;;1.40;100.00;100053.38;5059281;28;20139;-70
2022/12/04 01:35:08;;;;;;;37.15;19.95;;;;;;;1.43;100.00;100057.53;5056350;28;20060;-70
2022/12/04 01:37:34;;;;;;;37.33;20.20;;;;;;;1.43;100.00;100052.06;5043912;28;20024;-70
2022/12/04 01:39:59;;;;;;;38.97;20.70;;;;;;;1.42;100.00;100051.25;5046352;28;20040;-70
2022/12/04 01:42:24;;;;;;;35.58;20.02;;;;;;;1.42;100.00;100045.78;5064024;28;20521;-70
2022/12/04 01:45:31;;;;;;;39.05;21.08;;;;;;;1.41;100.00;100044.09;5064227;28;20032;-70
2022/12/04 01:48:14;;;;;;;39.65;20.63;;;;;;;1.45;100.00;100042.53;5060833;28;20382;-70
2022/12/04 01:50:40;;;;;;;35.83;19.40;;;;;;;1.44;100.00;100046.34;5079335;28;20539;-70
2022/12/04 01:53:05;;;;;;;38.47;21.05;;;;;;;1.40;100.00;100036.97;5060823;28;20052;-70
2022/12/04 01:55:31;;;;;;;35.83;20.58;;;;;;;1.41;100.00;100033.16;5066185;28;20028;-71
2022/12/04 01:57:57;;;;;;;40.42;20.35;;;;;;;1.43;100.00;100035.66;5060780;28;20077;-70
2022/12/04 02:00:23;;;;;;;38.45;20.13;;;;;;;1.41;100.00;100037.78;5080450;28;20027;-70
2022/12/04 02:02:48;;;;;;;39.50;21.15;;;;;;;1.39;100.00;100032.56;5064531;28;20108;-70
2022/12/04 02:05:24;;;;;;;36.42;19.35;;;;;;;1.37;100.00;100031.16;5067224;28;20020;-70
2022/12/04 02:07:50;;;;;;;37.60;19.98;;;;;;;1.37;100.00;100033.91;5080644;28;20035;-70
2022/12/04 02:10:23;;;;;;;36.33;20.55;;;;;;;1.37;100.00;100026.53;5078860;28;20032;-70
2022/12/04 02:13:14;;;;;;;36.63;19.95;;;;;;;1.35;100.00;100025.94;5039675;28;20032;-70
2022/12/04 02:16:08;;;;;;;37.20;20.08;;;;;;;1.33;100.00;100017.94;5065056;28;20042;-70
2022/12/04 02:18:37;;;;;;;38.92;20.25;;;;;;;1.36;100.00;100024.00;5080788;28;20071;-71
2022/12/04 02:21:08;;;;;;;37.83;20.33;;;;;;;1.34;100.00;100032.47;5080135;28;20046;-70
2022/12/04 02:23:45;;;;;;;40.90;21.83;;;;;;;1.33;100.00;100037.09;5063295;28;20028;-70
2022/12/04 02:26:21;;;;;;;50.80;22.30;;;;;;;1.34;100.00;100027.00;5098208;28;20036;-70
2022/12/04 02:29:06;;;;;;;39.97;21.98;;;;;;;1.32;100.00;100034.63;5080336;28;20028;-70
2022/12/04 02:31:34;;;;;;;41.85;22.38;;;;;;;1.30;100.00;100036.78;5060509;28;20537;-70
2022/12/04 02:34:08;;;;;;;40.85;20.95;;;;;;;1.28;100.00;100034.28;5079887;28;20048;-70
2022/12/04 02:36:38;;;;;;;40.88;22.10;;;;;;;1.30;100.00;100036.78;5063411;28;20652;-70
2022/12/04 02:39:06;;;;;;;39.13;20.50;;;;;;;1.31;100.00;100033.81;5064912;28;20047;-70
2022/12/04 02:41:59;;;;;;;38.38;21.20;;;;;;;1.30;100.00;100037.59;5044704;28;20031;-71
2022/12/04 02:44:46;;;;;;;43.42;23.33;;;;;;;1.26;100.00;100030.16;5069832;28;20044;-70
2022/12/04 02:47:12;;;;;;;43.17;22.85;;;;;;;1.25;100.00;100028.47;5076562;28;20029;-70
2022/12/04 02:49:46;;;;;;;47.00;23.77;;;;;;;1.22;100.00;100026.22;5058222;28;20071;-70
2022/12/04 02:52:13;;;;;;;42.90;21.95;;;;;;;1.24;100.00;100026.81;5046434;28;20032;-70
2022/12/04 02:54:41;;;;;;;40.00;20.88;;;;;;;1.25;100.00;100012.88;5045430;28;20623;-70
2022/12/04 02:57:10;;;;;;;41.95;21.67;;;;;;;1.22;100.00;100021.56;5079807;28;20387;-70
2022/12/04 02:59:40;;;;;;;44.30;21.15;;;;;;;1.19;100.00;100023.97;5079483;28;20032;-70
2022/12/04 03:02:33;;;;;;;43.30;22.02;;;;;;;1.18;100.00;100019.59;5079919;28;20024;-70
2022/12/04 03:04:59;;;;;;;;;;;;;;;1.18;100.00;100025.06;5066164;28;20025;-71
2022/12/04 03:07:46;;;;;;;43.50;21.42;;;;;;;1.17;100.00;100016.03;5062404;28;19926;-70
2022/12/04 03:10:17;;;;;;;44.20;22.80;;;;;;;1.16;100.00;100014.34;5079609;28;20032;-70
2022/12/04 03:12:55;;;;;;;44.22;21.67;;;;;;;1.14;100.00;100013.75;5058663;28;20480;-70
2022/12/04 03:15:27;;;;;;;46.70;22.08;;;;;;;1.14;100.00;100012.94;5039494;28;20028;-71
2022/12/04 03:17:55;;;;;;;43.08;21.77;;;;;;;1.14;100.00;100011.03;5050702;28;20036;-70
2022/12/04 03:20:21;;;;;;;45.95;22.92;;;;;;;1.12;100.00;100015.94;5036781;28;20518;-70
2022/12/04 03:22:50;;;;;;;47.05;21.67;;;;;;;1.13;100.00;100017.56;5061868;28;20031;-70
2022/12/04 03:25:15;;;;;;;47.38;23.48;;;;;;;1.12;100.00;100010.47;5045155;28;20118;-70
2022/12/04 03:28:03;;;;;;;43.92;21.85;;;;;;;1.11;100.00;100012.38;5041749;28;20033;-70
2022/12/04 03:30:33;;;;;;;44.80;22.48;;;;;;;1.13;100.00;100012.09;5074518;28;20048;-70
2022/12/04 03:33:10;;;;;;;46.08;21.27;;;;;;;1.17;100.00;100015.19;5025546;28;20032;-70
2022/12/04 03:36:05;;;;;;;42.40;20.48;;;;;;;1.16;100.00;100008.88;5061719;28;20048;-70
2022/12/04 03:39:02;;;;;;;50.42;23.48;;;;;;;1.15;100.00;100009.97;5060581;28;20036;-70
2022/12/04 03:41:36;;;;;;;44.83;21.50;;;;;;;1.18;100.00;100009.47;5020626;28;20044;-70
2022/12/04 03:44:19;;;;;;;44.42;21.35;;;;;;;1.20;100.00;100006.47;5046146;28;20557;-70
2022/12/04 03:46:59;;;;;;;43.03;22.17;;;;;;;1.20;100.00;100006.47;5059518;28;20036;-70
2022/12/04 03:49:30;;;;;;;45.45;22.95;;;;;;;1.19;100.00;99999.34;5062561;28;20093;-71
2022/12/04 03:52:32;;;;;;;46.65;22.92;;;;;;;1.14;100.00;100000.06;5078896;28;20036;-70
2022/12/04 03:55:08;;;;;;;44.15;20.98;;;;;;;1.16;100.00;99995.19;5029529;28;20443;-70
2022/12/04 03:57:37;;;;;;;46.47;22.13;;;;;;;1.18;100.00;99998.53;5045235;28;20051;-70
2022/12/04 04:00:05;;;;;;;48.95;24.00;;;;;;;1.16;100.00;99997.13;5078247;28;20077;-70
2022/12/04 04:02:40;;;;;;;45.03;21.55;;;;;;;1.17;100.00;100001.50;5077853;28;20438;-70
2022/12/04 04:05:07;;;;;;;46.35;23.60;;;;;;;1.18;100.00;99992.22;5062009;28;20072;-70
2022/12/04 04:07:50;;;;;;;47.22;22.95;;;;;;;1.21;100.00;99999.94;5078469;28;20032;-70
2022/12/04 04:10:17;;;;;;;45.10;22.17;;;;;;;1.17;100.00;99998.75;5058194;28;20033;-70
2022/12/04 04:24:13;;;;;;;43.67;22.25;;;;;;;1.18;100.00;99994.97;5059058;28;20028;-70
2022/12/04 04:26:40;;;;;;;40.60;21.27;;;;;;;1.17;100.00;99993.28;5072634;28;20032;-70
2022/12/04 04:29:08;;;;;;;41.25;21.35;;;;;;;1.19;100.00;99988.41;5060203;28;20024;-70
2022/12/04 04:31:48;;;;;;;47.20;23.90;;;;;;;1.17;100.00;99988.69;5055369;28;20108;-70
2022/12/04 04:34:23;;;;;;;43.20;22.27;;;;;;;1.16;100.00;99983.44;5046260;28;20048;-70
2022/12/04 04:36:54;;;;;;;46.72;23.98;;;;;;;1.16;100.00;99980.69;5074342;28;20039;-70
2022/12/04 04:39:26;;;;;;;46.25;22.98;;;;;;;1.13;100.00;99987.50;5096001;28;20388;-70
2022/12/04 04:42:25;;;;;;;47.80;22.63;;;;;;;1.16;100.00;99991.63;5078051;28;20028;-70
2022/12/04 04:45:00;;;;;;;48.90;24.92;;;;;;;1.15;100.00;99987.25;5077591;28;20058;-70
2022/12/04 04:47:52;;;;;;;54.00;24.90;;;;;;;1.14;100.00;99993.78;5057834;28;20025;-70
2022/12/04 04:50:17;;;;;;;57.13;25.50;;;;;;;1.13;100.00;99997.59;5087413;28;20070;-70
2022/12/04 04:52:45;;;;;;;58.47;26.05;;;;;;;1.15;100.00;99999.03;5060815;28;20020;-70
2022/12/04 04:55:11;;;;;;;55.40;25.73;;;;;;;1.14;100.00;99999.25;5057901;28;20021;-70
2022/12/04 04:57:36;;;;;;;53.03;25.65;;;;;;;1.16;100.00;100008.88;5052459;28;20024;-70
2022/12/04 05:00:07;;;;;;;51.15;24.85;;;;;;;1.17;100.00;100005.09;5077468;28;20024;-70
2022/12/04 05:02:32;;;;;;;50.78;24.98;;;;;;;1.19;100.00;99999.34;5077577;28;20058;-70
2022/12/04 05:04:58;;;;;;;56.55;25.95;;;;;;;1.19;100.00;100002.09;5060947;28;20489;-70
2022/12/04 05:07:23;;;;;;;53.05;26.48;;;;;;;1.14;100.00;100000.06;5095665;28;20024;-70
2022/12/04 05:09:49;;;;;;;55.92;26.42;;;;;;;1.13;100.00;100003.06;5060660;28;20032;-70
2022/12/04 05:12:14;;;;;;;56.00;25.70;;;;;;;1.14;100.00;100005.53;5076662;28;20032;-70
2022/12/04 05:14:40;;;;;;;54.67;25.45;;;;;;;1.16;100.00;100006.16;5062739;28;20040;-70
2022/12/04 05:17:05;;;;;;;60.15;27.10;;;;;;;1.17;100.00;100004.22;5064953;28;20480;-70
2022/12/04 05:22:16;;;;;;;53.95;25.83;;;;;;;1.16;100.00;99999.84;5066909;28;20094;-70
2022/12/04 05:24:42;;;;;;;56.75;25.67;;;;;;;1.15;100.00;99990.81;5047532;28;20016;-70
2022/12/04 05:27:07;;;;;;;53.72;25.17;;;;;;;1.13;100.00;99997.59;5063690;28;20384;-70
2022/12/04 05:29:33;;;;;;;55.10;26.20;;;;;;;1.10;100.00;99990.72;5058711;28;20033;-70
2022/12/04 05:31:59;;;;;;;55.45;25.83;;;;;;;1.11;100.00;99995.09;5061371;28;20027;-70
2022/12/04 05:34:24;;;;;;;57.28;27.08;;;;;;;1.09;100.00;99998.09;5047772;28;20650;-70
2022/12/04 05:36:51;;;;;;;55.40;25.80;;;;;;;1.09;100.00;99989.06;5047874;28;20032;-70
2022/12/04 05:39:16;;;;;;;51.20;23.90;;;;;;;1.11;100.00;99995.09;5048013;28;20088;-70
2022/12/04 05:41:41;;;;;;;51.33;25.40;;;;;;;1.10;100.00;99983.34;5064402;28;20477;-70
2022/12/04 05:44:07;;;;;;;52.10;25.65;;;;;;;1.09;100.00;99986.34;5064162;28;20085;-70
2022/12/04 05:46:32;;;;;;;56.13;25.20;;;;;;;1.07;100.00;99989.28;5044528;28;20569;-70
2022/12/04 05:48:58;;;;;;;52.90;25.65;;;;;;;1.08;100.00;99999.16;5080964;28;20024;-70
2022/12/04 05:51:23;;;;;;;53.70;24.70;;;;;;;1.10;100.00;99988.81;5064133;28;20020;-70
2022/12/04 05:53:50;;;;;;;53.63;24.83;;;;;;;1.09;100.00;99987.16;5034563;28;20041;-70
2022/12/04 05:56:15;;;;;;;53.75;25.77;;;;;;;1.11;100.00;99995.09;5055943;28;20063;-70
2022/12/04 05:58:41;;;;;;;51.33;23.92;;;;;;;1.13;100.00;99987.50;5063826;28;20031;-71
2022/12/04 06:01:15;;;;;;;54.65;25.35;;;;;;;1.17;100.00;99994.16;5047396;28;20401;-70
2022/12/04 06:03:42;;;;;;;49.53;23.92;;;;;;;1.18;100.00;100000.44;5064005;28;20392;-70
2022/12/04 06:06:13;;;;;;;47.90;23.80;;;;;;;1.20;100.00;100001.84;5063961;28;20034;-70
2022/12/04 06:08:39;;;;;;;55.55;25.67;;;;;;;1.17;100.00;99996.88;5064323;28;20040;-70
2022/12/04 06:11:15;;;;;;;54.53;26.27;;;;;;;1.16;100.00;99992.47;5047188;28;20035;-70
2022/12/04 06:13:41;;;;;;;51.10;22.55;;;;;;;1.14;100.00;100000.06;5052254;28;20544;-70
2022/12/04 06:16:12;;;;;;;55.15;25.25;;;;;;;1.13;100.00;99998.44;5061713;28;20097;-70
2022/12/04 06:18:37;;;;;;;52.40;25.77;;;;;;;1.13;100.00;99998.44;5080342;28;20028;-70
2022/12/04 06:21:03;;;;;;;56.42;25.90;;;;;;;1.11;100.00;99998.69;5080744;28;20028;-70
2022/12/04 06:23:28;;;;;;;48.97;23.52;;;;;;;1.16;100.00;100008.06;5063508;28;20396;-70
2022/12/04 06:25:54;;;;;;;52.33;24.25;;;;;;;1.14;100.00;100004.72;5059009;28;20036;-70
2022/12/04 06:28:19;;;;;;;50.08;23.63;;;;;;;1.16;100.00;100008.06;5059989;28;20032;-70
2022/12/04 06:30:45;;;;;;;53.13;24.33;;;;;;;1.13;100.00;100003.06;5061022;28;20027;-70
2022/12/04 06:33:10;;;;;;;47.72;24.30;;;;;;;1.14;100.00;100012.94;5046980;28;20036;-70
2022/12/04 06:35:36;;;;;;;54.88;26.35;;;;;;;1.13;100.00;100014.84;5079970;28;20044;-70
2022/12/04 06:38:01;;;;;;;53.67;24.85;;;;;;;1.16;100.00;100016.25;5063571;28;20079;-70
2022/12/04 06:40:27;;;;;;;47.92;23.65;;;;;;;1.18;100.00;100017.69;5080172;28;20027;-70
2022/12/04 06:42:52;;;;;;;48.65;23.70;;;;;;;1.19;100.00;100018.50;5063195;28;20024;-70
2022/12/04 06:45:17;;;;;;;50.47;23.80;;;;;;;1.21;100.00;100017.19;5029200;28;20031;-70
2022/12/04 06:47:43;;;;;;;52.78;24.50;;;;;;;1.21;100.00;100021.84;5094146;28;20028;-70
2022/12/04 06:50:09;;;;;;;49.58;24.35;;;;;;;1.21;100.00;100030.03;5058179;28;20039;-70
2022/12/04 06:52:34;;;;;;;51.15;23.95;;;;;;;1.23;100.00;100027.91;5077493;28;20111;-70
2022/12/04 06:55:00;;;;;;;48.33;24.30;;;;;;;1.21;100.00;100030.03;5042869;28;20098;-70
2022/12/04 06:57:25;;;;;;;48.40;23.55;;;;;;;1.22;100.00;100034.44;5075813;28;20028;-70
2022/12/04 06:59:50;;;;;;;54.67;25.27;;;;;;;1.22;100.00;100037.16;5063142;28;20032;-70
2022/12/04 07:02:16;;;;;;;57.78;26.02;;;;;;;1.19;100.00;100037.66;5079775;28;20061;-70
2022/12/04 07:04:42;;;;;;;54.38;24.30;;;;;;;1.21;100.00;100040.97;5046297;28;20054;-70
2022/12/04 07:07:08;;;;;;;53.47;24.48;;;;;;;1.20;100.00;100044.78;5062978;28;20123;-70
2022/12/04 07:09:34;;;;;;;51.38;24.42;;;;;;;1.17;100.00;100042.53;5046077;28;20162;-70
2022/12/04 07:11:59;;;;;;;54.55;24.20;;;;;;;1.18;100.00;100034.09;5042569;28;20058;-70
2022/12/04 07:14:25;;;;;;;51.78;25.30;;;;;;;1.20;100.00;100037.41;5071474;28;20430;-70
2022/12/04 07:16:50;;;;;;;50.70;23.45;;;;;;;1.17;100.00;100042.53;5050844;28;20480;-70
2022/12/04 07:19:16;;;;;;;54.85;24.27;;;;;;;1.16;100.00;100035.41;5057602;28;20028;-70
2022/12/04 07:21:41;;;;;;;53.20;25.23;;;;;;;1.17;100.00;100046.13;5032242;28;20036;-70
2022/12/04 07:24:07;;;;;;;56.13;25.65;;;;;;;1.19;100.00;100034.91;5061151;28;20039;-70
2022/12/04 07:26:32;;;;;;;56.80;25.55;;;;;;;1.22;100.00;100048.09;5043084;28;20029;-70
2022/12/04 07:28:58;;;;;;;54.92;24.77;;;;;;;1.24;100.00;100043.22;5040791;28;20058;-71
2022/12/04 07:31:24;;;;;;;57.67;27.13;;;;;;;1.24;100.00;100043.22;5067826;28;20024;-70
2022/12/04 07:33:50;;;;;;;59.58;26.50;;;;;;;1.25;100.00;100034.75;5069680;28;20038;-70
2022/12/04 07:36:18;;;;;;;57.78;26.85;;;;;;;1.25;100.00;100039.41;5061830;28;20485;-70
2022/12/04 07:38:43;;;;;;;57.20;26.30;;;;;;;1.19;100.00;100046.69;5078946;28;20103;-70
2022/12/04 07:41:09;;;;;;;54.58;25.70;;;;;;;1.22;100.00;100045.38;5062207;28;20039;-70
2022/12/04 07:43:35;;;;;;;55.35;26.27;;;;;;;1.23;100.00;100044.31;5061796;28;20024;-71
2022/12/04 07:46:09;;;;;;;57.17;27.52;;;;;;;1.21;100.00;100046.44;5070144;28;20033;-70
2022/12/04 07:48:34;;;;;;;56.90;25.95;;;;;;;1.20;100.00;100042.03;5060185;28;20028;-70
2022/12/04 07:51:13;;;;;;;55.78;26.33;;;;;;;1.22;100.00;100040.72;5078674;28;20032;-71
2022/12/04 07:53:39;;;;;;;54.40;26.10;;;;;;;1.18;100.00;100047.75;5037131;28;20492;-70
2022/12/04 07:56:05;;;;;;;55.72;26.88;;;;;;;1.17;100.00;100045.25;5054067;28;20032;-70
2022/12/04 07:58:31;;;;;;;58.90;27.20;;;;;;;1.13;100.00;100038.63;5078403;28;20031;-70
2022/12/04 08:01:07;;;;;;;60.50;29.05;;;;;;;1.15;100.00;100050.16;5083851;28;20036;-70
2022/12/04 08:03:32;;;;;;;59.50;27.63;;;;;;;1.19;100.00;100056.78;5058911;28;20115;-70
2022/12/04 08:06:04;;;;;;;52.38;26.17;;;;;;;1.19;100.00;100051.31;5045084;28;20035;-70
2022/12/04 08:08:30;;;;;;;56.72;26.15;;;;;;;1.17;100.00;100054.31;5076676;28;20032;-70
2022/12/04 08:10:55;;;;;;;60.25;27.13;;;;;;;1.15;100.00;100048.25;5038426;28;20071;-70
2022/12/04 08:13:21;;;;;;;54.50;25.05;;;;;;;1.17;100.00;100056.19;5044883;28;20079;-70
2022/12/04 08:15:46;;;;;;;54.97;25.30;;;;;;;1.17;100.00;100059.78;5072600;28;20024;-70
2022/12/04 08:18:12;;;;;;;56.50;26.20;;;;;;;1.17;100.00;100058.94;5072523;28;20032;-70
2022/12/04 08:20:37;;;;;;;57.28;26.95;;;;;;;1.19;100.00;100059.53;5061565;28;20028;-70
2022/12/04 08:23:03;;;;;;;57.15;27.75;;;;;;;1.17;100.00;100062.53;5044852;28;20473;-70
2022/12/04 08:25:28;;;;;;;57.47;26.60;;;;;;;1.19;100.00;100062.28;5040264;28;20024;-70
2022/12/04 08:27:54;;;;;;;58.25;27.05;;;;;;;1.18;100.00;100055.97;5078168;28;20051;-70
2022/12/04 08:30:19;;;;;;;56.63;27.25;;;;;;;1.19;100.00;100062.28;5048618;28;20036;-70
2022/12/04 08:32:45;;;;;;;57.10;26.15;;;;;;;1.22;100.00;100059.88;5042743;28;20103;-71
2022/12/04 08:35:10;;;;;;;58.75;25.60;;;;;;;1.23;100.00;100064.28;5060944;28;20063;-70
2022/12/04 08:37:36;;;;;;;61.75;27.02;;;;;;;1.23;100.00;100067.03;5044976;28;20028;-70
2022/12/04 08:40:01;;;;;;;59.67;26.77;;;;;;;1.24;100.00;100065.09;5077909;28;20430;-70
2022/12/04 08:42:27;;;;;;;54.50;25.70;;;;;;;1.26;100.00;100062.97;5071231;28;20028;-70
2022/12/04 08:44:52;;;;;;;56.17;25.88;;;;;;;1.26;100.00;100060.22;5054037;28;20029;-70
2022/12/04 08:47:17;;;;;;;55.83;26.35;;;;;;;1.24;100.00;100065.09;5020119;28;20021;-70
2022/12/04 08:49:43;;;;;;;56.50;26.38;;;;;;;1.27;100.00;100064.63;5021166;28;20035;-70
2022/12/04 08:52:08;;;;;;;57.00;26.88;;;;;;;1.26;100.00;100072.00;5057726;28;20040;-72
2022/12/04 08:54:34;;;;;;;58.50;25.00;;;;;;;1.26;100.00;100071.19;5051949;28;20389;-70
2022/12/04 08:56:59;;;;;;;56.95;26.48;;;;;;;1.27;100.00;100070.09;5040888;28;20461;-72
2022/12/04 08:59:25;;;;;;;57.90;24.92;;;;;;;1.30;100.00;100069.59;5040995;28;20036;-70
2022/12/04 09:01:50;;;;;;;56.25;26.35;;;;;;;1.30;100.00;100075.06;5040891;28;20020;-70
2022/12/04 09:04:17;;;;;;;53.97;24.40;;;;;;;1.32;100.00;100079.22;5039189;28;20620;-70
2022/12/04 09:06:42;;;;;;;56.50;26.08;;;;;;;1.34;100.00;100076.25;5028263;28;20029;-69
2022/12/04 09:09:07;;;;;;;54.72;25.45;;;;;;;1.35;100.00;100069.69;5034099;28;20029;-69
2022/12/04 09:11:33;;;;;;;58.65;25.52;;;;;;;1.37;100.00;100070.31;5042247;28;20091;-69
2022/12/04 09:14:02;;;;;;;56.50;26.63;;;;;;;1.38;100.00;100071.94;5036749;28;20062;-84
2022/12/04 09:16:27;;;;;;;55.05;26.02;;;;;;;1.41;100.00;100076.09;5024535;28;20086;-70
2022/12/04 09:18:53;;;;;;;54.95;25.23;;;;;;;1.41;100.00;100085.13;5041115;28;20020;-70
2022/12/04 09:21:20;;;;;;;54.35;25.10;;;;;;;1.44;100.00;100081.09;5057278;28;20056;-70
2022/12/04 09:23:46;;;;;;;54.67;25.25;;;;;;;1.48;100.00;100080.38;5057317;28;20031;-71
2022/12/04 09:26:20;;;;;;;60.65;26.23;;;;;;;1.48;100.00;100077.63;5042658;28;20028;-71
2022/12/04 09:28:46;;;;;;;56.63;26.23;;;;;;;1.46;100.00;100077.03;5050389;28;20433;-70
2022/12/04 09:31:11;;;;;;;59.70;26.00;;;;;;;1.47;100.00;100070.47;5031171;28;20111;-70
2022/12/04 09:33:37;;;;;;;58.78;26.10;;;;;;;1.47;100.00;100067.75;5041168;28;20028;-71
2022/12/04 09:36:03;;;;;;;56.90;25.85;;;;;;;1.49;100.00;100076.53;5060877;28;20083;-70
2022/12/04 09:38:28;;;;;;;57.80;26.88;;;;;;;1.50;100.00;100075.44;5057428;28;20028;-70
2022/12/04 09:41:26;;;;;;;58.28;27.15;;;;;;;1.54;100.00;100073.91;5043597;28;20084;-71
2022/12/04 09:43:52;;;;;;;54.45;25.23;;;;;;;1.59;100.00;100072.31;5051433;28;20036;-70
2022/12/04 09:46:30;;;;;;;57.45;26.70;;;;;;;1.58;100.00;100071.50;5084761;28;20036;-71
2022/12/04 09:48:56;;;;;;;58.10;26.58;;;;;;;1.61;100.00;100075.66;5033663;28;20028;-70
2022/12/04 09:51:22;;;;;;;58.50;27.20;;;;;;;1.63;100.00;100079.81;5060357;28;20455;-70
2022/12/04 09:54:21;;;;;;;56.17;25.92;;;;;;;1.66;100.00;100084.78;5059914;28;20040;-70
2022/12/04 09:56:51;;;;;;;61.92;26.40;;;;;;;1.67;100.00;100083.72;5077561;28;20048;-70
2022/12/04 09:59:22;;;;;;;54.60;25.17;;;;;;;1.70;100.00;100087.84;5060296;28;20031;-70
2022/12/04 10:01:59;;;;;;;57.83;27.08;;;;;;;1.71;100.00;100086.81;5063427;28;20035;-70
2022/12/04 10:04:25;;;;;;;59.22;26.73;;;;;;;1.73;100.00;100084.66;5065668;28;20104;-70
2022/12/04 10:07:02;;;;;;;63.08;27.58;;;;;;;1.73;100.00;100090.97;5080724;28;20028;-70
2022/12/04 10:09:33;;;;;;;57.45;26.50;;;;;;;1.75;100.00;100098.91;5093109;28;20106;-71
2022/12/04 10:12:15;;;;;;;62.97;26.88;;;;;;;1.79;100.00;100091.88;5063452;28;20032;-70
2022/12/04 10:15:09;;;;;;;58.45;26.77;;;;;;;1.81;100.00;100099.81;5047431;28;20545;-71
2022/12/04 10:17:59;;;;;;;58.50;26.75;;;;;;;1.81;100.00;100097.09;5044203;28;20043;-70
2022/12/04 10:21:10;;;;;;;56.58;25.60;;;;;;;1.82;100.00;100087.81;5082407;28;20500;-70
2022/12/04 10:23:41;;;;;;;58.45;26.33;;;;;;;1.84;100.00;100102.94;5079242;28;20032;-70
2022/12/04 10:26:12;;;;;;;49.80;23.77;;;;;;;1.87;100.00;100107.91;5087159;28;20028;-72
2022/12/04 10:28:39;;;;;;;56.60;25.77;;;;;;;1.88;100.00;100095.88;5044768;28;20381;-71
2022/12/04 10:31:06;;;;;;;60.67;26.98;;;;;;;1.92;100.00;100090.72;5043603;28;20025;-71
2022/12/04 10:34:00;;;;;;;60.40;26.95;;;;;;;1.92;100.00;100088.84;5046165;28;20051;-73
2022/12/04 10:36:28;;;;;;;57.65;26.50;;;;;;;1.96;100.00;100089.16;5047563;28;20047;-71
2022/12/04 10:39:00;;;;;;;55.47;25.90;;;;;;;2.00;100.00;100085.66;5030548;28;20679;-71
2022/12/04 10:41:30;;;;;;;57.42;26.65;;;;;;;2.04;100.00;100085.19;5080114;28;20035;-72
2022/12/04 10:43:55;;;;;;;59.63;27.20;;;;;;;2.07;100.00;100081.94;5079903;28;20028;-72
2022/12/04 10:46:26;;;;;;;62.78;27.55;;;;;;;2.09;100.00;100086.09;5069743;28;20025;-72
2022/12/04 10:48:56;;;;;;;64.88;29.27;;;;;;;2.12;100.00;100087.53;5069322;28;20028;-73
2022/12/04 10:51:22;;;;;;;59.17;26.77;;;;;;;2.14;100.00;100086.16;5030747;28;20028;-72
2022/12/04 10:53:48;;;;;;;57.40;27.88;;;;;;;2.13;100.00;100090.00;5053708;28;20511;-72
2022/12/04 10:56:19;;;;;;;57.90;26.52;;;;;;;2.17;100.00;100084.84;5059738;28;20341;-72
2022/12/04 10:58:55;;;;;;;58.97;27.25;;;;;;;2.20;100.00;100093.41;5057516;28;20032;-72
2022/12/04 11:01:21;;;;;;;59.72;28.27;;;;;;;2.24;100.00;100085.50;5063081;28;20024;-72
2022/12/04 11:03:46;;;;;;;54.85;25.80;;;;;;;2.25;100.00;100078.94;5063254;28;20024;-72
2022/12/04 11:06:12;;;;;;;50.97;25.45;;;;;;;2.27;100.00;100079.53;5070500;28;20032;-71
2022/12/04 11:08:43;;;;;;;50.65;24.02;;;;;;;2.28;100.00;100072.97;5062726;28;20024;-72
2022/12/04 11:11:13;;;;;;;55.40;24.52;;;;;;;2.33;100.00;100073.03;5062557;28;20067;-71
2022/12/04 11:13:39;;;;;;;46.38;23.58;;;;;;;2.35;100.00;100084.59;5045675;28;20055;-71
2022/12/04 11:16:05;;;;;;;46.55;22.48;;;;;;;2.39;100.00;100071.22;5062863;28;20024;-72
2022/12/04 11:18:47;;;;;;;48.30;22.20;;;;;;;2.39;100.00;100080.25;5079593;28;20063;-72
2022/12/04 11:21:15;;;;;;;45.80;22.23;;;;;;;2.45;100.00;100079.28;5079430;28;20079;-71
2022/12/04 11:23:42;;;;;;;42.72;20.63;;;;;;;2.49;100.00;100085.09;5060603;28;20299;-71
2022/12/04 11:26:07;;;;;;;43.45;21.98;;;;;;;2.51;100.00;100074.72;5034521;28;20024;-71
2022/12/04 11:28:32;;;;;;;47.20;22.85;;;;;;;2.51;100.00;100079.34;5043708;28;20024;-71
2022/12/04 11:31:00;;;;;;;45.65;22.08;;;;;;;2.53;100.00;100071.69;5064867;28;20039;-72
2022/12/04 11:33:29;;;;;;;46.03;23.33;;;;;;;2.51;100.00;100079.34;5037948;28;20370;-72
2022/12/04 11:35:55;;;;;;;46.50;22.52;;;;;;;2.54;100.00;100084.34;5062606;28;20044;-72